sensor_id;sensor_type;location;lat;lon;timestamp;P1;durP1;ratioP1;P2;durP2;ratioP2
26756;SDS011;23848;49.798;10.228;2023-02-04T00:01:19;7.45;;;2.90;;
26756;SDS011;23848;49.798;10.228;2023-02-04T00:03:48;7.05;;;2.90;;
26756;SDS011;23848;49.798;10.228;2023-02-04T00:06:17;11.10;;;3.00;;
26756;SDS011;23848;49.798;10.228;2023-02-04T00:08:45;7.85;;;2.55;;
26756;SDS011;23848;49.798;10.228;2023-02-04T00:11:15;11.15;;;3.38;;
26756;SDS011;23848;49.798;10.228;2023-02-04T00:13:44;11.90;;;2.80;;
26756;SDS011;23848;49.798;10.228;2023-02-04T00:16:12;10.80;;;3.20;;
26756;SDS011;23848;49.798;10.228;2023-02-04T00:18:40;5.30;;;2.50;;
26756;SDS011;23848;49.798;10.228;2023-02-04T00:21:09;6.63;;;2.90;;
26756;SDS011;23848;49.798;10.228;2023-02-04T00:23:37;8.45;;;2.65;;
26756;SDS011;23848;49.798;10.228;2023-02-04T00:26:06;8.77;;;3.13;;
26756;SDS011;23848;49.798;10.228;2023-02-04T00:28:36;9.82;;;2.80;;
26756;SDS011;23848;49.798;10.228;2023-02-04T00:31:05;7.10;;;2.70;;
26756;SDS011;23848;49.798;10.228;2023-02-04T00:33:33;8.75;;;2.95;;
26756;SDS011;23848;49.798;10.228;2023-02-04T00:36:01;10.77;;;3.03;;
26756;SDS011;23848;49.798;10.228;2023-02-04T00:38:30;12.70;;;3.33;;
26756;SDS011;23848;49.798;10.228;2023-02-04T00:40:58;7.63;;;2.28;;
26756;SDS011;23848;49.798;10.228;2023-02-04T00:43:26;10.55;;;2.80;;
26756;SDS011;23848;49.798;10.228;2023-02-04T00:45:56;8.27;;;2.95;;
26756;SDS011;23848;49.798;10.228;2023-02-04T00:48:24;10.98;;;2.63;;
26756;SDS011;23848;49.798;10.228;2023-02-04T00:50:53;8.00;;;2.72;;
26756;SDS011;23848;49.798;10.228;2023-02-04T00:53:21;9.90;;;2.67;;
26756;SDS011;23848;49.798;10.228;2023-02-04T00:55:49;7.47;;;2.50;;
26756;SDS011;23848;49.798;10.228;2023-02-04T00:58:18;7.15;;;2.78;;
26756;SDS011;23848;49.798;10.228;2023-02-04T01:00:46;7.50;;;2.65;;
26756;SDS011;23848;49.798;10.228;2023-02-04T01:03:16;8.50;;;2.78;;
26756;SDS011;23848;49.798;10.228;2023-02-04T01:05:44;10.15;;;3.20;;
26756;SDS011;23848;49.798;10.228;2023-02-04T01:08:13;8.30;;;2.45;;
26756;SDS011;23848;49.798;10.228;2023-02-04T01:10:41;8.77;;;3.47;;
26756;SDS011;23848;49.798;10.228;2023-02-04T01:13:09;7.72;;;3.00;;
26756;SDS011;23848;49.798;10.228;2023-02-04T01:15:38;9.40;;;3.10;;
26756;SDS011;23848;49.798;10.228;2023-02-04T01:18:06;9.32;;;2.85;;
26756;SDS011;23848;49.798;10.228;2023-02-04T01:20:36;10.35;;;3.40;;
26756;SDS011;23848;49.798;10.228;2023-02-04T01:23:04;11.13;;;3.60;;
26756;SDS011;23848;49.798;10.228;2023-02-04T01:25:33;10.98;;;3.75;;
26756;SDS011;23848;49.798;10.228;2023-02-04T01:28:01;8.18;;;3.22;;
26756;SDS011;23848;49.798;10.228;2023-02-04T01:30:29;10.82;;;3.80;;
26756;SDS011;23848;49.798;10.228;2023-02-04T01:32:58;8.30;;;3.90;;
26756;SDS011;23848;49.798;10.228;2023-02-04T01:35:26;10.57;;;3.53;;
26756;SDS011;23848;49.798;10.228;2023-02-04T01:37:56;10.13;;;3.22;;
26756;SDS011;23848;49.798;10.228;2023-02-04T01:40:24;7.65;;;3.28;;
26756;SDS011;23848;49.798;10.228;2023-02-04T01:42:53;9.55;;;3.47;;
26756;SDS011;23848;49.798;10.228;2023-02-04T01:45:21;10.50;;;3.00;;
26756;SDS011;23848;49.798;10.228;2023-02-04T01:47:50;10.23;;;3.35;;
26756;SDS011;23848;49.798;10.228;2023-02-04T01:50:18;9.90;;;3.13;;
26756;SDS011;23848;49.798;10.228;2023-02-04T01:52:46;5.60;;;2.78;;
26756;SDS011;23848;49.798;10.228;2023-02-04T01:55:17;13.88;;;3.25;;
26756;SDS011;23848;49.798;10.228;2023-02-04T01:57:45;9.50;;;3.45;;
26756;SDS011;23848;49.798;10.228;2023-02-04T02:00:15;8.75;;;3.70;;
26756;SDS011;23848;49.798;10.228;2023-02-04T02:02:45;7.32;;;2.70;;
26756;SDS011;23848;49.798;10.228;2023-02-04T02:05:14;7.28;;;2.90;;
26756;SDS011;23848;49.798;10.228;2023-02-04T02:07:43;7.35;;;2.60;;
26756;SDS011;23848;49.798;10.228;2023-02-04T02:10:12;6.68;;;3.10;;
26756;SDS011;23848;49.798;10.228;2023-02-04T02:12:42;8.15;;;3.53;;
26756;SDS011;23848;49.798;10.228;2023-02-04T02:15:11;11.48;;;3.28;;
26756;SDS011;23848;49.798;10.228;2023-02-04T02:17:39;8.07;;;2.35;;
26756;SDS011;23848;49.798;10.228;2023-02-04T02:20:10;8.05;;;3.08;;
26756;SDS011;23848;49.798;10.228;2023-02-04T02:22:40;8.90;;;3.00;;
26756;SDS011;23848;49.798;10.228;2023-02-04T02:25:14;6.80;;;3.50;;
26756;SDS011;23848;49.798;10.228;2023-02-04T02:27:42;10.75;;;3.42;;
26756;SDS011;23848;49.798;10.228;2023-02-04T02:30:11;11.27;;;3.28;;
26756;SDS011;23848;49.798;10.228;2023-02-04T02:32:43;9.18;;;2.95;;
26756;SDS011;23848;49.798;10.228;2023-02-04T02:35:11;8.20;;;3.20;;
26756;SDS011;23848;49.798;10.228;2023-02-04T02:37:40;9.68;;;3.08;;
26756;SDS011;23848;49.798;10.228;2023-02-04T02:40:09;7.18;;;2.65;;
26756;SDS011;23848;49.798;10.228;2023-02-04T02:42:39;10.75;;;3.25;;
26756;SDS011;23848;49.798;10.228;2023-02-04T02:45:10;9.65;;;3.30;;
26756;SDS011;23848;49.798;10.228;2023-02-04T02:47:40;8.35;;;3.13;;
26756;SDS011;23848;49.798;10.228;2023-02-04T02:50:08;7.35;;;2.78;;
26756;SDS011;23848;49.798;10.228;2023-02-04T02:52:40;6.32;;;2.50;;
26756;SDS011;23848;49.798;10.228;2023-02-04T02:55:11;7.18;;;2.40;;
26756;SDS011;23848;49.798;10.228;2023-02-04T02:57:42;9.02;;;2.25;;
26756;SDS011;23848;49.798;10.228;2023-02-04T03:00:12;9.27;;;2.55;;
26756;SDS011;23848;49.798;10.228;2023-02-04T03:02:41;8.60;;;2.65;;
26756;SDS011;23848;49.798;10.228;2023-02-04T03:05:09;7.07;;;2.10;;
26756;SDS011;23848;49.798;10.228;2023-02-04T03:07:38;7.10;;;2.63;;
26756;SDS011;23848;49.798;10.228;2023-02-04T03:10:07;7.10;;;2.50;;
26756;SDS011;23848;49.798;10.228;2023-02-04T03:12:35;9.27;;;2.40;;
26756;SDS011;23848;49.798;10.228;2023-02-04T03:15:05;9.32;;;2.67;;
26756;SDS011;23848;49.798;10.228;2023-02-04T03:17:34;9.50;;;2.38;;
26756;SDS011;23848;49.798;10.228;2023-02-04T03:20:03;7.85;;;2.42;;
26756;SDS011;23848;49.798;10.228;2023-02-04T03:22:31;7.53;;;2.47;;
26756;SDS011;23848;49.798;10.228;2023-02-04T03:24:59;8.98;;;2.47;;
26756;SDS011;23848;49.798;10.228;2023-02-04T03:27:28;7.30;;;2.08;;
26756;SDS011;23848;49.798;10.228;2023-02-04T03:29:56;6.43;;;2.55;;
26756;SDS011;23848;49.798;10.228;2023-02-04T03:32:26;9.68;;;2.30;;
26756;SDS011;23848;49.798;10.228;2023-02-04T03:34:55;8.57;;;2.72;;
26756;SDS011;23848;49.798;10.228;2023-02-04T03:37:23;16.55;;;2.55;;
26756;SDS011;23848;49.798;10.228;2023-02-04T03:39:51;6.10;;;1.92;;
26756;SDS011;23848;49.798;10.228;2023-02-04T03:42:21;5.50;;;1.77;;
26756;SDS011;23848;49.798;10.228;2023-02-04T03:44:50;9.40;;;2.28;;
26756;SDS011;23848;49.798;10.228;2023-02-04T03:47:19;5.40;;;2.35;;
26756;SDS011;23848;49.798;10.228;2023-02-04T03:49:48;10.70;;;2.50;;
26756;SDS011;23848;49.798;10.228;2023-02-04T03:52:17;8.05;;;2.10;;
26756;SDS011;23848;49.798;10.228;2023-02-04T03:54:45;12.65;;;2.67;;
26756;SDS011;23848;49.798;10.228;2023-02-04T03:57:14;11.95;;;2.38;;
26756;SDS011;23848;49.798;10.228;2023-02-04T03:59:42;8.32;;;1.98;;
26756;SDS011;23848;49.798;10.228;2023-02-04T04:02:11;5.57;;;2.03;;
26756;SDS011;23848;49.798;10.228;2023-02-04T04:04:39;10.13;;;2.47;;
26756;SDS011;23848;49.798;10.228;2023-02-04T04:07:09;11.02;;;2.40;;
26756;SDS011;23848;49.798;10.228;2023-02-04T04:09:37;5.82;;;2.45;;
26756;SDS011;23848;49.798;10.228;2023-02-04T04:12:05;7.43;;;2.67;;
26756;SDS011;23848;49.798;10.228;2023-02-04T04:14:34;10.13;;;2.05;;
26756;SDS011;23848;49.798;10.228;2023-02-04T04:17:02;10.77;;;2.20;;
26756;SDS011;23848;49.798;10.228;2023-02-04T04:19:30;7.10;;;2.15;;
26756;SDS011;23848;49.798;10.228;2023-02-04T04:21:59;9.20;;;2.53;;
26756;SDS011;23848;49.798;10.228;2023-02-04T04:24:28;7.80;;;2.17;;
26756;SDS011;23848;49.798;10.228;2023-02-04T04:26:57;7.40;;;1.95;;
26756;SDS011;23848;49.798;10.228;2023-02-04T04:29:25;5.28;;;2.03;;
26756;SDS011;23848;49.798;10.228;2023-02-04T04:31:53;6.90;;;2.35;;
26756;SDS011;23848;49.798;10.228;2023-02-04T04:34:22;9.75;;;2.75;;
26756;SDS011;23848;49.798;10.228;2023-02-04T04:36:50;8.52;;;2.45;;
26756;SDS011;23848;49.798;10.228;2023-02-04T04:39:18;8.95;;;2.50;;
26756;SDS011;23848;49.798;10.228;2023-02-04T04:41:48;11.40;;;4.78;;
26756;SDS011;23848;49.798;10.228;2023-02-04T04:44:16;8.73;;;2.60;;
26756;SDS011;23848;49.798;10.228;2023-02-04T04:46:45;11.10;;;3.35;;
26756;SDS011;23848;49.798;10.228;2023-02-04T04:49:13;7.68;;;2.55;;
26756;SDS011;23848;49.798;10.228;2023-02-04T04:51:42;12.65;;;2.90;;
26756;SDS011;23848;49.798;10.228;2023-02-04T04:54:11;7.93;;;2.50;;
26756;SDS011;23848;49.798;10.228;2023-02-04T04:56:39;14.25;;;2.50;;
26756;SDS011;23848;49.798;10.228;2023-02-04T04:59:08;7.22;;;2.33;;
26756;SDS011;23848;49.798;10.228;2023-02-04T05:01:37;10.55;;;2.30;;
26756;SDS011;23848;49.798;10.228;2023-02-04T05:04:05;7.03;;;2.28;;
26756;SDS011;23848;49.798;10.228;2023-02-04T05:06:33;11.48;;;2.33;;
26756;SDS011;23848;49.798;10.228;2023-02-04T05:09:02;9.40;;;2.42;;
26756;SDS011;23848;49.798;10.228;2023-02-04T05:11:30;6.38;;;2.15;;
26756;SDS011;23848;49.798;10.228;2023-02-04T05:13:58;10.05;;;2.50;;
26756;SDS011;23848;49.798;10.228;2023-02-04T05:16:28;8.10;;;1.95;;
26756;SDS011;23848;49.798;10.228;2023-02-04T05:18:56;9.32;;;2.10;;
26756;SDS011;23848;49.798;10.228;2023-02-04T05:21:25;10.85;;;2.75;;
26756;SDS011;23848;49.798;10.228;2023-02-04T05:23:53;10.55;;;2.30;;
26756;SDS011;23848;49.798;10.228;2023-02-04T05:26:21;10.18;;;2.10;;
26756;SDS011;23848;49.798;10.228;2023-02-04T05:28:56;6.60;;;1.95;;
26756;SDS011;23848;49.798;10.228;2023-02-04T05:31:25;7.13;;;2.30;;
26756;SDS011;23848;49.798;10.228;2023-02-04T05:33:55;6.22;;;2.80;;
26756;SDS011;23848;49.798;10.228;2023-02-04T05:36:23;7.38;;;1.95;;
26756;SDS011;23848;49.798;10.228;2023-02-04T05:38:52;12.40;;;2.50;;
26756;SDS011;23848;49.798;10.228;2023-02-04T05:41:20;9.20;;;2.05;;
26756;SDS011;23848;49.798;10.228;2023-02-04T05:43:48;8.18;;;2.17;;
26756;SDS011;23848;49.798;10.228;2023-02-04T05:46:17;7.47;;;2.22;;
26756;SDS011;23848;49.798;10.228;2023-02-04T05:48:45;9.98;;;2.55;;
26756;SDS011;23848;49.798;10.228;2023-02-04T05:51:15;7.97;;;2.72;;
26756;SDS011;23848;49.798;10.228;2023-02-04T05:53:43;10.55;;;2.50;;
26756;SDS011;23848;49.798;10.228;2023-02-04T05:56:11;10.23;;;2.25;;
26756;SDS011;23848;49.798;10.228;2023-02-04T05:58:40;10.52;;;2.55;;
26756;SDS011;23848;49.798;10.228;2023-02-04T06:01:08;10.35;;;3.03;;
26756;SDS011;23848;49.798;10.228;2023-02-04T06:03:36;8.10;;;1.80;;
26756;SDS011;23848;49.798;10.228;2023-02-04T06:06:05;9.23;;;1.95;;
26756;SDS011;23848;49.798;10.228;2023-02-04T06:08:35;8.48;;;2.10;;
26756;SDS011;23848;49.798;10.228;2023-02-04T06:11:03;5.72;;;1.88;;
26756;SDS011;23848;49.798;10.228;2023-02-04T06:13:31;14.68;;;2.13;;
26756;SDS011;23848;49.798;10.228;2023-02-04T06:16:00;8.75;;;1.75;;
26756;SDS011;23848;49.798;10.228;2023-02-04T06:18:28;10.85;;;1.85;;
26756;SDS011;23848;49.798;10.228;2023-02-04T06:20:56;5.85;;;1.75;;
26756;SDS011;23848;49.798;10.228;2023-02-04T06:23:25;7.50;;;2.38;;
26756;SDS011;23848;49.798;10.228;2023-02-04T06:25:54;6.30;;;1.88;;
26756;SDS011;23848;49.798;10.228;2023-02-04T06:28:23;18.98;;;4.00;;
26756;SDS011;23848;49.798;10.228;2023-02-04T06:30:51;13.48;;;7.15;;
26756;SDS011;23848;49.798;10.228;2023-02-04T06:33:19;18.60;;;7.78;;
26756;SDS011;23848;49.798;10.228;2023-02-04T06:35:49;14.40;;;6.65;;
26756;SDS011;23848;49.798;10.228;2023-02-04T06:38:19;11.20;;;4.90;;
26756;SDS011;23848;49.798;10.228;2023-02-04T06:40:47;10.98;;;4.47;;
26756;SDS011;23848;49.798;10.228;2023-02-04T06:43:20;13.15;;;5.13;;
26756;SDS011;23848;49.798;10.228;2023-02-04T06:45:50;14.57;;;6.75;;
26756;SDS011;23848;49.798;10.228;2023-02-04T06:48:19;11.38;;;5.10;;
26756;SDS011;23848;49.798;10.228;2023-02-04T06:50:47;10.90;;;3.55;;
26756;SDS011;23848;49.798;10.228;2023-02-04T06:53:16;12.25;;;6.65;;
26756;SDS011;23848;49.798;10.228;2023-02-04T06:55:44;15.60;;;8.70;;
26756;SDS011;23848;49.798;10.228;2023-02-04T06:58:12;15.98;;;9.43;;
26756;SDS011;23848;49.798;10.228;2023-02-04T07:00:42;20.83;;;9.98;;
26756;SDS011;23848;49.798;10.228;2023-02-04T07:03:11;12.05;;;4.32;;
26756;SDS011;23848;49.798;10.228;2023-02-04T07:05:39;9.63;;;3.95;;
26756;SDS011;23848;49.798;10.228;2023-02-04T07:08:07;9.68;;;5.45;;
26756;SDS011;23848;49.798;10.228;2023-02-04T07:10:35;8.15;;;3.67;;
26756;SDS011;23848;49.798;10.228;2023-02-04T07:13:04;8.73;;;3.97;;
26756;SDS011;23848;49.798;10.228;2023-02-04T07:15:32;9.57;;;3.70;;
26756;SDS011;23848;49.798;10.228;2023-02-04T07:18:02;11.52;;;4.82;;
26756;SDS011;23848;49.798;10.228;2023-02-04T07:20:30;11.63;;;4.22;;
26756;SDS011;23848;49.798;10.228;2023-02-04T07:22:59;12.63;;;6.50;;
26756;SDS011;23848;49.798;10.228;2023-02-04T07:25:28;11.30;;;5.07;;
26756;SDS011;23848;49.798;10.228;2023-02-04T07:27:56;11.27;;;3.75;;
26756;SDS011;23848;49.798;10.228;2023-02-04T07:30:26;9.82;;;2.47;;
26756;SDS011;23848;49.798;10.228;2023-02-04T07:32:55;3.83;;;1.25;;
26756;SDS011;23848;49.798;10.228;2023-02-04T07:35:25;2.90;;;0.63;;
26756;SDS011;23848;49.798;10.228;2023-02-04T07:37:53;1.45;;;0.40;;
26756;SDS011;23848;49.798;10.228;2023-02-04T07:40:22;1.35;;;0.60;;
26756;SDS011;23848;49.798;10.228;2023-02-04T07:42:50;1.40;;;0.70;;
26756;SDS011;23848;49.798;10.228;2023-02-04T07:45:18;2.92;;;1.30;;
26756;SDS011;23848;49.798;10.228;2023-02-04T07:47:46;2.17;;;0.80;;
26756;SDS011;23848;49.798;10.228;2023-02-04T07:50:15;2.83;;;1.13;;
26756;SDS011;23848;49.798;10.228;2023-02-04T07:52:45;3.15;;;0.70;;
26756;SDS011;23848;49.798;10.228;2023-02-04T07:55:13;2.40;;;0.80;;
26756;SDS011;23848;49.798;10.228;2023-02-04T07:57:41;2.97;;;1.10;;
26756;SDS011;23848;49.798;10.228;2023-02-04T08:00:10;1.77;;;0.85;;
26756;SDS011;23848;49.798;10.228;2023-02-04T08:02:39;2.92;;;0.98;;
26756;SDS011;23848;49.798;10.228;2023-02-04T08:05:08;3.50;;;1.60;;
26756;SDS011;23848;49.798;10.228;2023-02-04T08:07:37;5.60;;;1.30;;
26756;SDS011;23848;49.798;10.228;2023-02-04T08:10:08;3.00;;;1.20;;
26756;SDS011;23848;49.798;10.228;2023-02-04T08:12:36;10.57;;;5.22;;
26756;SDS011;23848;49.798;10.228;2023-02-04T08:15:05;24.85;;;11.07;;
26756;SDS011;23848;49.798;10.228;2023-02-04T08:17:34;66.13;;;31.10;;
26756;SDS011;23848;49.798;10.228;2023-02-04T08:20:02;10.30;;;5.03;;
26756;SDS011;23848;49.798;10.228;2023-02-04T08:22:31;4.28;;;2.75;;
26756;SDS011;23848;49.798;10.228;2023-02-04T08:25:00;3.50;;;1.38;;
26756;SDS011;23848;49.798;10.228;2023-02-04T08:27:30;2.85;;;1.58;;
26756;SDS011;23848;49.798;10.228;2023-02-04T08:29:58;2.58;;;1.30;;
26756;SDS011;23848;49.798;10.228;2023-02-04T08:32:26;2.30;;;1.25;;
26756;SDS011;23848;49.798;10.228;2023-02-04T08:34:56;4.32;;;1.52;;
26756;SDS011;23848;49.798;10.228;2023-02-04T08:37:25;4.35;;;2.00;;
26756;SDS011;23848;49.798;10.228;2023-02-04T08:39:53;4.25;;;2.10;;
26756;SDS011;23848;49.798;10.228;2023-02-04T08:42:21;4.63;;;2.92;;
26756;SDS011;23848;49.798;10.228;2023-02-04T08:44:51;3.95;;;1.60;;
26756;SDS011;23848;49.798;10.228;2023-02-04T08:47:19;3.78;;;1.92;;
26756;SDS011;23848;49.798;10.228;2023-02-04T08:49:48;2.70;;;1.15;;
26756;SDS011;23848;49.798;10.228;2023-02-04T08:52:16;3.75;;;1.90;;
26756;SDS011;23848;49.798;10.228;2023-02-04T08:54:44;2.55;;;1.60;;
26756;SDS011;23848;49.798;10.228;2023-02-04T08:57:13;2.95;;;1.67;;
26756;SDS011;23848;49.798;10.228;2023-02-04T08:59:41;2.15;;;1.20;;
26756;SDS011;23848;49.798;10.228;2023-02-04T09:02:12;1.90;;;1.25;;
26756;SDS011;23848;49.798;10.228;2023-02-04T09:04:41;2.67;;;1.25;;
26756;SDS011;23848;49.798;10.228;2023-02-04T09:07:09;2.47;;;1.30;;
26756;SDS011;23848;49.798;10.228;2023-02-04T09:09:37;2.70;;;1.40;;
26756;SDS011;23848;49.798;10.228;2023-02-04T09:12:05;2.65;;;1.50;;
26756;SDS011;23848;49.798;10.228;2023-02-04T09:14:34;2.95;;;1.60;;
26756;SDS011;23848;49.798;10.228;2023-02-04T09:17:02;2.17;;;1.10;;
26756;SDS011;23848;49.798;10.228;2023-02-04T09:19:32;2.00;;;1.00;;
26756;SDS011;23848;49.798;10.228;2023-02-04T09:22:00;1.73;;;0.98;;
26756;SDS011;23848;49.798;10.228;2023-02-04T09:24:29;3.92;;;1.60;;
26756;SDS011;23848;49.798;10.228;2023-02-04T09:26:57;2.25;;;1.30;;
26756;SDS011;23848;49.798;10.228;2023-02-04T09:29:25;3.63;;;1.63;;
26756;SDS011;23848;49.798;10.228;2023-02-04T09:31:54;3.05;;;1.25;;
26756;SDS011;23848;49.798;10.228;2023-02-04T09:34:23;2.67;;;1.20;;
26756;SDS011;23848;49.798;10.228;2023-02-04T09:36:53;2.88;;;1.23;;
26756;SDS011;23848;49.798;10.228;2023-02-04T09:39:21;1.88;;;1.08;;
26756;SDS011;23848;49.798;10.228;2023-02-04T09:41:50;2.30;;;1.10;;
26756;SDS011;23848;49.798;10.228;2023-02-04T09:44:20;1.40;;;0.70;;
26756;SDS011;23848;49.798;10.228;2023-02-04T09:46:50;1.20;;;0.73;;
26756;SDS011;23848;49.798;10.228;2023-02-04T09:49:19;1.90;;;0.90;;
26756;SDS011;23848;49.798;10.228;2023-02-04T09:51:47;1.48;;;0.95;;
26756;SDS011;23848;49.798;10.228;2023-02-04T09:54:18;2.38;;;0.90;;
26756;SDS011;23848;49.798;10.228;2023-02-04T09:56:47;2.30;;;1.33;;
26756;SDS011;23848;49.798;10.228;2023-02-04T09:59:16;2.17;;;1.20;;
26756;SDS011;23848;49.798;10.228;2023-02-04T10:01:45;3.65;;;1.05;;
26756;SDS011;23848;49.798;10.228;2023-02-04T10:04:17;1.52;;;0.85;;
26756;SDS011;23848;49.798;10.228;2023-02-04T10:06:46;2.83;;;0.90;;
26756;SDS011;23848;49.798;10.228;2023-02-04T10:09:14;2.28;;;1.08;;
26756;SDS011;23848;49.798;10.228;2023-02-04T10:11:45;2.45;;;0.95;;
26756;SDS011;23848;49.798;10.228;2023-02-04T10:14:15;2.10;;;0.93;;
26756;SDS011;23848;49.798;10.228;2023-02-04T10:16:45;3.00;;;1.00;;
26756;SDS011;23848;49.798;10.228;2023-02-04T10:19:15;3.80;;;1.33;;
26756;SDS011;23848;49.798;10.228;2023-02-04T10:21:44;1.63;;;1.05;;
26756;SDS011;23848;49.798;10.228;2023-02-04T10:24:14;2.67;;;1.00;;
26756;SDS011;23848;49.798;10.228;2023-02-04T10:26:44;2.92;;;1.17;;
26756;SDS011;23848;49.798;10.228;2023-02-04T10:29:14;1.38;;;0.70;;
26756;SDS011;23848;49.798;10.228;2023-02-04T10:31:43;1.40;;;0.77;;
26756;SDS011;23848;49.798;10.228;2023-02-04T10:34:13;2.33;;;1.33;;
26756;SDS011;23848;49.798;10.228;2023-02-04T10:36:44;2.50;;;1.10;;
26756;SDS011;23848;49.798;10.228;2023-02-04T10:39:14;1.55;;;0.93;;
26756;SDS011;23848;49.798;10.228;2023-02-04T10:41:44;1.67;;;0.80;;
26756;SDS011;23848;49.798;10.228;2023-02-04T10:44:16;1.80;;;0.90;;
26756;SDS011;23848;49.798;10.228;2023-02-04T10:46:44;1.35;;;0.82;;
26756;SDS011;23848;49.798;10.228;2023-02-04T10:49:15;5.28;;;3.00;;
26756;SDS011;23848;49.798;10.228;2023-02-04T10:51:44;2.13;;;1.27;;
26756;SDS011;23848;49.798;10.228;2023-02-04T10:54:13;2.50;;;1.20;;
26756;SDS011;23848;49.798;10.228;2023-02-04T10:56:58;2.45;;;1.50;;
26756;SDS011;23848;49.798;10.228;2023-02-04T10:59:27;2.92;;;1.13;;
26756;SDS011;23848;49.798;10.228;2023-02-04T11:01:56;2.05;;;1.10;;
26756;SDS011;23848;49.798;10.228;2023-02-04T11:04:26;2.13;;;0.93;;
26756;SDS011;23848;49.798;10.228;2023-02-04T11:06:54;3.10;;;1.35;;
26756;SDS011;23848;49.798;10.228;2023-02-04T11:09:25;1.48;;;0.65;;
26756;SDS011;23848;49.798;10.228;2023-02-04T11:11:56;2.00;;;1.10;;
26756;SDS011;23848;49.798;10.228;2023-02-04T11:14:28;1.92;;;1.00;;
26756;SDS011;23848;49.798;10.228;2023-02-04T11:16:56;1.60;;;0.80;;
26756;SDS011;23848;49.798;10.228;2023-02-04T11:19:30;2.25;;;1.23;;
26756;SDS011;23848;49.798;10.228;2023-02-04T11:22:06;1.52;;;0.98;;
26756;SDS011;23848;49.798;10.228;2023-02-04T11:24:34;2.00;;;1.00;;
26756;SDS011;23848;49.798;10.228;2023-02-04T11:27:06;1.45;;;0.77;;
26756;SDS011;23848;49.798;10.228;2023-02-04T11:29:37;1.40;;;0.73;;
26756;SDS011;23848;49.798;10.228;2023-02-04T11:32:12;1.60;;;0.80;;
26756;SDS011;23848;49.798;10.228;2023-02-04T11:34:53;1.40;;;0.80;;
26756;SDS011;23848;49.798;10.228;2023-02-04T11:37:35;1.70;;;1.10;;
26756;SDS011;23848;49.798;10.228;2023-02-04T11:40:19;1.80;;;0.80;;
26756;SDS011;23848;49.798;10.228;2023-02-04T11:42:47;2.00;;;1.00;;
26756;SDS011;23848;49.798;10.228;2023-02-04T11:45:19;2.67;;;1.20;;
26756;SDS011;23848;49.798;10.228;2023-02-04T11:47:49;3.78;;;1.10;;
26756;SDS011;23848;49.798;10.228;2023-02-04T11:50:20;1.92;;;0.90;;
26756;SDS011;23848;49.798;10.228;2023-02-04T11:52:50;3.88;;;1.95;;
26756;SDS011;23848;49.798;10.228;2023-02-04T11:55:18;5.00;;;1.85;;
26756;SDS011;23848;49.798;10.228;2023-02-04T11:57:50;2.33;;;1.20;;
26756;SDS011;23848;49.798;10.228;2023-02-04T12:00:21;1.65;;;0.93;;
26756;SDS011;23848;49.798;10.228;2023-02-04T12:02:50;2.05;;;0.90;;
26756;SDS011;23848;49.798;10.228;2023-02-04T12:05:28;2.47;;;1.25;;
26756;SDS011;23848;49.798;10.228;2023-02-04T12:08:08;2.67;;;1.33;;
26756;SDS011;23848;49.798;10.228;2023-02-04T12:10:37;3.17;;;1.40;;
26756;SDS011;23848;49.798;10.228;2023-02-04T12:13:11;1.80;;;0.75;;
26756;SDS011;23848;49.798;10.228;2023-02-04T12:15:41;16.65;;;9.18;;
26756;SDS011;23848;49.798;10.228;2023-02-04T12:18:12;10.70;;;5.93;;
26756;SDS011;23848;49.798;10.228;2023-02-04T12:20:42;11.15;;;5.97;;
26756;SDS011;23848;49.798;10.228;2023-02-04T12:23:10;12.43;;;6.38;;
26756;SDS011;23848;49.798;10.228;2023-02-04T12:25:38;3.83;;;2.10;;
26756;SDS011;23848;49.798;10.228;2023-02-04T12:28:10;3.20;;;1.60;;
26756;SDS011;23848;49.798;10.228;2023-02-04T12:30:38;2.97;;;1.30;;
26756;SDS011;23848;49.798;10.228;2023-02-04T12:33:11;2.45;;;1.20;;
26756;SDS011;23848;49.798;10.228;2023-02-04T12:35:40;2.00;;;1.13;;
26756;SDS011;23848;49.798;10.228;2023-02-04T12:38:11;1.77;;;1.08;;
26756;SDS011;23848;49.798;10.228;2023-02-04T12:40:39;1.83;;;1.00;;
26756;SDS011;23848;49.798;10.228;2023-02-04T12:43:08;1.77;;;0.88;;
26756;SDS011;23848;49.798;10.228;2023-02-04T12:45:36;1.38;;;0.73;;
26756;SDS011;23848;49.798;10.228;2023-02-04T12:48:12;1.58;;;0.73;;
26756;SDS011;23848;49.798;10.228;2023-02-04T12:50:40;1.90;;;1.17;;
26756;SDS011;23848;49.798;10.228;2023-02-04T12:53:09;1.83;;;0.77;;
26756;SDS011;23848;49.798;10.228;2023-02-04T12:55:38;2.03;;;1.00;;
26756;SDS011;23848;49.798;10.228;2023-02-04T12:58:06;2.55;;;1.30;;
26756;SDS011;23848;49.798;10.228;2023-02-04T13:00:34;4.15;;;1.80;;
26756;SDS011;23848;49.798;10.228;2023-02-04T13:03:03;1.90;;;1.10;;
26756;SDS011;23848;49.798;10.228;2023-02-04T13:05:33;2.53;;;1.08;;
26756;SDS011;23848;49.798;10.228;2023-02-04T13:08:04;2.45;;;1.20;;
26756;SDS011;23848;49.798;10.228;2023-02-04T13:10:32;2.50;;;1.17;;
26756;SDS011;23848;49.798;10.228;2023-02-04T13:13:01;3.30;;;1.55;;
26756;SDS011;23848;49.798;10.228;2023-02-04T13:15:32;2.95;;;1.45;;
26756;SDS011;23848;49.798;10.228;2023-02-04T13:18:00;2.92;;;0.80;;
26756;SDS011;23848;49.798;10.228;2023-02-04T13:20:29;2.20;;;1.13;;
26756;SDS011;23848;49.798;10.228;2023-02-04T13:23:00;3.50;;;2.00;;
26756;SDS011;23848;49.798;10.228;2023-02-04T13:25:28;3.00;;;1.45;;
26756;SDS011;23848;49.798;10.228;2023-02-04T13:27:57;2.20;;;1.25;;
26756;SDS011;23848;49.798;10.228;2023-02-04T13:30:25;2.53;;;1.20;;
26756;SDS011;23848;49.798;10.228;2023-02-04T13:32:54;2.28;;;1.10;;
26756;SDS011;23848;49.798;10.228;2023-02-04T13:35:22;1.60;;;1.00;;
26756;SDS011;23848;49.798;10.228;2023-02-04T13:37:51;6.22;;;2.50;;
26756;SDS011;23848;49.798;10.228;2023-02-04T13:40:23;2.67;;;1.52;;
26756;SDS011;23848;49.798;10.228;2023-02-04T13:42:53;2.85;;;1.30;;
26756;SDS011;23848;49.798;10.228;2023-02-04T13:45:22;2.70;;;1.20;;
26756;SDS011;23848;49.798;10.228;2023-02-04T13:47:50;2.00;;;0.90;;
26756;SDS011;23848;49.798;10.228;2023-02-04T13:50:20;2.13;;;1.00;;
26756;SDS011;23848;49.798;10.228;2023-02-04T13:52:49;1.90;;;1.30;;
26756;SDS011;23848;49.798;10.228;2023-02-04T13:55:17;2.22;;;1.00;;
26756;SDS011;23848;49.798;10.228;2023-02-04T13:57:47;1.50;;;0.90;;
26756;SDS011;23848;49.798;10.228;2023-02-04T14:00:15;3.10;;;1.63;;
26756;SDS011;23848;49.798;10.228;2023-02-04T14:02:46;2.40;;;1.50;;
26756;SDS011;23848;49.798;10.228;2023-02-04T14:05:15;2.10;;;1.30;;
26756;SDS011;23848;49.798;10.228;2023-02-04T14:07:43;1.77;;;0.88;;
26756;SDS011;23848;49.798;10.228;2023-02-04T14:10:12;1.85;;;1.00;;
26756;SDS011;23848;49.798;10.228;2023-02-04T14:12:40;1.85;;;0.95;;
26756;SDS011;23848;49.798;10.228;2023-02-04T14:15:12;1.90;;;0.85;;
26756;SDS011;23848;49.798;10.228;2023-02-04T14:17:40;1.60;;;0.80;;
26756;SDS011;23848;49.798;10.228;2023-02-04T14:20:09;2.33;;;1.00;;
26756;SDS011;23848;49.798;10.228;2023-02-04T14:22:38;1.67;;;0.73;;
26756;SDS011;23848;49.798;10.228;2023-02-04T14:25:06;2.70;;;1.33;;
26756;SDS011;23848;49.798;10.228;2023-02-04T14:27:35;2.35;;;1.08;;
26756;SDS011;23848;49.798;10.228;2023-02-04T14:30:14;1.95;;;0.88;;
26756;SDS011;23848;49.798;10.228;2023-02-04T14:32:43;7.82;;;3.63;;
26756;SDS011;23848;49.798;10.228;2023-02-04T14:35:11;10.85;;;5.65;;
26756;SDS011;23848;49.798;10.228;2023-02-04T14:37:40;4.10;;;2.35;;
26756;SDS011;23848;49.798;10.228;2023-02-04T14:40:09;4.57;;;1.73;;
26756;SDS011;23848;49.798;10.228;2023-02-04T14:42:37;3.38;;;1.50;;